Time;durP1;ratioP1;P1;durP2;ratioP2;P2;SDS_P1;SDS_P2;PMS_P1;PMS_P2;Temp;Humidity;BMP_temperature;BMP_pressure;BME280_temperature;BME280_humidity;BME280_pressure;Samples;Min_cycle;Max_cycle;Signal;HPM_P1;HPM_P2
2023/05/01 00:02:07;;;;;;;8.32;3.10;;;;;;;11.89;69.88;101669.19;5046209;28;20039;-57
2023/05/01 00:04:33;;;;;;;6.43;2.78;;;;;;;11.89;69.31;101661.19;5050680;28;20383;-54
2023/05/01 00:06:58;;;;;;;8.27;3.20;;;;;;;11.88;69.62;101658.63;5050848;28;20033;-56
2023/05/01 00:09:26;;;;;;;5.15;2.67;;;;;;;11.88;69.38;101659.47;5051114;28;20053;-54
2023/05/01 00:11:51;;;;;;;6.00;3.20;;;;;;;11.87;69.51;101651.59;5050958;28;20039;-53
2023/05/01 00:14:16;;;;;;;5.30;3.00;;;;;;;11.85;69.55;101644.56;5050548;28;20111;-54
2023/05/01 00:16:42;;;;;;;5.47;3.03;;;;;;;11.86;69.41;101653.41;5050397;28;20780;-54
2023/05/01 00:19:07;;;;;;;6.13;2.83;;;;;;;11.84;69.50;101642.03;5048609;28;20467;-54
2023/05/01 00:21:33;;;;;;;7.78;3.10;;;;;;;11.84;69.17;101639.38;5048068;28;20029;-53
2023/05/01 00:23:58;;;;;;;3.92;2.92;;;;;;;11.84;69.07;101642.03;5056307;28;20017;-54
2023/05/01 00:26:28;;;;;;;4.68;2.70;;;;;;;11.84;69.24;101642.03;5043694;28;20112;-54
2023/05/01 00:28:54;;;;;;;3.33;2.78;;;;;;;11.80;69.47;101635.19;5049954;28;20017;-54
2023/05/01 00:31:19;;;;;;;6.60;3.30;;;;;;;11.83;69.72;101640.31;5050389;28;20040;-56
2023/05/01 00:33:45;;;;;;;5.88;3.30;;;;;;;11.82;69.78;101634.16;5045802;28;20035;-57
2023/05/01 00:36:10;;;;;;;6.50;3.30;;;;;;;11.82;69.40;101627.94;5050378;28;20090;-54
2023/05/01 00:38:35;;;;;;;5.95;3.03;;;;;;;11.78;71.73;101622.00;5050766;28;20021;-57
2023/05/01 00:41:00;;;;;;;5.05;3.05;;;;;;;11.79;70.60;101622.84;5047961;28;20121;-56
2023/05/01 00:43:26;;;;;;;3.72;3.35;;;;;;;11.80;70.56;101619.22;5050040;28;20344;-53
2023/05/01 00:45:51;;;;;;;5.60;3.20;;;;;;;11.81;70.99;101618.28;5051046;28;20536;-54
2023/05/01 00:48:16;;;;;;;6.70;3.00;;;;;;;11.80;70.75;101617.41;5050214;28;20453;-56
2023/05/01 00:50:43;;;;;;;7.50;3.20;;;;;;;11.78;70.42;101613.16;5049733;28;20393;-55
2023/05/01 00:53:09;;;;;;;8.02;3.40;;;;;;;11.79;70.44;101609.53;5050326;28;20518;-56
2023/05/01 00:55:35;;;;;;;5.07;3.10;;;;;;;11.78;70.51;101607.84;5049826;28;20481;-53
2023/05/01 00:58:01;;;;;;;5.28;2.90;;;;;;;11.75;71.68;101600.91;5050366;28;20032;-55
2023/05/01 01:00:28;;;;;;;6.20;2.92;;;;;;;11.75;70.84;101595.59;5050092;28;20497;-54
2023/05/01 01:02:53;;;;;;;3.30;2.80;;;;;;;11.75;70.84;101592.09;5050233;28;20049;-57
2023/05/01 01:05:23;;;;;;;6.63;2.97;;;;;;;11.73;70.72;101594.84;5049830;28;20434;-57
2023/05/01 01:08:09;;;;;;;6.07;3.10;;;;;;;11.76;71.40;101591.13;5050390;28;20033;-56
2023/05/01 01:10:59;;;;;;;4.57;3.33;;;;;;;11.74;70.93;101579.72;5046978;28;20464;-53
2023/05/01 01:13:51;;;;;;;6.18;3.35;;;;;;;11.72;71.71;101582.50;5044738;28;20478;-53
2023/05/01 01:16:22;;;;;;;6.30;3.13;;;;;;;11.70;71.93;101578.25;5050379;28;20115;-53
2023/05/01 01:19:06;;;;;;;5.60;3.22;;;;;;;11.71;71.53;101577.28;5049519;28;20025;-53
2023/05/01 01:21:35;;;;;;;4.93;2.65;;;;;;;11.69;72.08;101572.09;5049447;28;20083;-53
2023/05/01 01:24:19;;;;;;;6.38;3.17;;;;;;;11.70;71.39;101568.44;5050509;28;20083;-53
2023/05/01 01:26:57;;;;;;;7.65;3.00;;;;;;;11.68;72.21;101566.88;5049970;28;20116;-54
2023/05/01 01:29:25;;;;;;;6.63;3.35;;;;;;;11.66;72.32;101566.97;5049352;28;20112;-54
2023/05/01 01:32:00;;;;;;;6.43;3.60;;;;;;;11.63;72.26;101562.69;5050091;28;20090;-55
2023/05/01 01:34:32;;;;;;;5.97;3.70;;;;;;;11.59;72.36;101550.59;5050121;28;20052;-53
2023/05/01 01:37:06;;;;;;;6.82;3.90;;;;;;;11.59;72.09;101542.59;5049050;28;20017;-53
2023/05/01 01:39:42;;;;;;;7.47;3.80;;;;;;;11.58;72.21;101546.22;5049702;28;20035;-53
2023/05/01 01:42:12;;;;;;;5.13;3.50;;;;;;;11.57;72.10;101539.16;5050068;28;20091;-53
2023/05/01 01:44:42;;;;;;;5.07;3.13;;;;;;;11.56;72.52;101534.81;5049022;28;20028;-52
2023/05/01 01:47:11;;;;;;;6.70;3.67;;;;;;;11.53;73.06;101534.19;5050165;28;20047;-56
2023/05/01 01:49:39;;;;;;;7.78;3.70;;;;;;;11.53;72.93;101527.06;5049447;28;20017;-56
2023/05/01 01:52:06;;;;;;;6.32;3.58;;;;;;;11.53;73.61;101524.41;5041973;28;20064;-53
2023/05/01 01:54:36;;;;;;;6.13;3.58;;;;;;;11.47;73.71;101525.69;5051732;28;20614;-53
2023/05/01 01:57:03;;;;;;;5.10;3.60;;;;;;;11.50;73.56;101526.44;5054440;28;20025;-54
2023/05/01 01:59:32;;;;;;;5.82;3.90;;;;;;;11.47;74.06;101520.38;5052767;28;20429;-53
2023/05/01 02:01:58;;;;;;;5.80;3.88;;;;;;;11.47;73.89;101520.38;5053439;28;20033;-53
2023/05/01 02:04:26;;;;;;;7.15;3.58;;;;;;;11.48;74.07;101515.88;5052455;28;20043;-52
2023/05/01 02:06:55;;;;;;;6.43;3.75;;;;;;;11.45;74.28;101518.75;5052036;28;20029;-53
2023/05/01 02:09:22;;;;;;;7.03;3.47;;;;;;;11.44;74.65;101525.03;5052416;28;20068;-54
2023/05/01 02:11:49;;;;;;;4.57;3.88;;;;;;;11.39;74.67;101514.72;5048340;28;20033;-53
2023/05/01 02:14:16;;;;;;;7.30;4.28;;;;;;;11.39;74.78;101505.88;5048136;28;20082;-54
2023/05/01 02:16:42;;;;;;;6.05;3.72;;;;;;;11.35;75.31;101502.59;5052987;28;20029;-53
2023/05/01 02:19:08;;;;;;;5.93;4.10;;;;;;;11.37;75.03;101505.13;5052880;28;20142;-53
2023/05/01 02:21:37;;;;;;;6.53;3.88;;;;;;;11.33;74.67;101504.50;5052131;28;20095;-53
2023/05/01 02:24:05;;;;;;;6.13;4.13;;;;;;;11.32;75.16;101496.63;5053510;28;20107;-52
2023/05/01 02:26:33;;;;;;;4.75;3.67;;;;;;;11.31;74.95;101503.75;5052955;28;20029;-57
2023/05/01 02:28:59;;;;;;;7.33;4.10;;;;;;;11.30;74.97;101500.22;5053448;28;20032;-52
2023/05/01 02:31:24;;;;;;;9.52;4.03;;;;;;;11.27;74.63;101489.84;5052152;28;20029;-53
2023/05/01 02:33:49;;;;;;;7.38;4.30;;;;;;;11.30;74.81;101494.91;5053096;28;20048;-52
2023/05/01 02:36:15;;;;;;;7.28;3.90;;;;;;;11.26;74.70;101485.47;5052683;28;20451;-53
2023/05/01 02:38:40;;;;;;;7.53;4.00;;;;;;;11.24;74.16;101491.81;5052621;28;20429;-53
2023/05/01 02:41:07;;;;;;;7.55;3.72;;;;;;;11.23;74.12;101483.00;5052336;28;20025;-53
2023/05/01 02:43:34;;;;;;;8.55;3.85;;;;;;;11.20;74.41;101483.22;5052713;28;20029;-56
2023/05/01 02:46:02;;;;;;;5.53;3.70;;;;;;;11.19;74.17;101480.66;5051955;28;20037;-57
2023/05/01 02:48:29;;;;;;;9.15;4.00;;;;;;;11.16;74.83;101475.56;5050117;28;20090;-57
2023/05/01 02:50:55;;;;;;;8.15;3.92;;;;;;;11.13;75.02;101473.13;5048843;28;20028;-55
2023/05/01 02:53:21;;;;;;;9.00;3.85;;;;;;;11.15;75.23;101476.53;5053332;28;20033;-53
2023/05/01 02:55:47;;;;;;;7.30;3.88;;;;;;;11.15;74.85;101473.88;5054105;28;20124;-54
2023/05/01 02:58:17;;;;;;;5.55;4.30;;;;;;;11.16;75.01;101462.25;5053145;28;20021;-55
2023/05/01 03:00:43;;;;;;;6.47;4.00;;;;;;;11.12;74.89;101456.31;5047157;28;20029;-53
2023/05/01 03:03:09;;;;;;;12.38;4.30;;;;;;;11.09;75.39;101454.72;5053296;28;20029;-56
2023/05/01 03:05:35;;;;;;;6.93;4.60;;;;;;;11.11;75.57;101452.81;5053316;28;20032;-56
2023/05/01 03:08:00;;;;;;;7.22;4.15;;;;;;;11.11;75.32;101455.47;5053665;28;20498;-56
2023/05/01 03:10:25;;;;;;;7.55;4.25;;;;;;;11.11;75.41;101459.94;5053182;28;20049;-56
2023/05/01 03:12:51;;;;;;;7.78;4.38;;;;;;;11.09;75.45;101453.84;5053551;28;20024;-54
2023/05/01 03:15:17;;;;;;;7.15;4.25;;;;;;;11.06;75.35;101448.78;5053214;28;20100;-53
2023/05/01 03:17:42;;;;;;;6.50;4.53;;;;;;;11.05;75.67;101447.06;5053390;28;20021;-55
2023/05/01 03:20:09;;;;;;;10.15;4.15;;;;;;;11.04;75.56;101438.25;5053402;28;20028;-56
2023/05/01 03:22:35;;;;;;;6.55;4.50;;;;;;;11.05;75.79;101442.59;5053353;28;20029;-53
2023/05/01 03:25:00;;;;;;;6.45;4.47;;;;;;;11.05;76.25;101436.44;5052534;28;20037;-56
2023/05/01 03:27:26;;;;;;;8.50;4.20;;;;;;;11.05;76.19;101437.28;5053572;28;20419;-57
2023/05/01 03:29:51;;;;;;;7.80;4.47;;;;;;;11.02;76.74;101433.97;5052817;28;20037;-54
2023/05/01 03:32:17;;;;;;;5.95;4.28;;;;;;;11.03;77.57;101435.69;5052948;28;20094;-56
2023/05/01 03:34:43;;;;;;;8.43;4.43;;;;;;;11.03;76.79;101427.72;5051318;28;20383;-56
2023/05/01 03:37:08;;;;;;;4.82;3.80;;;;;;;11.02;76.29;101420.69;5052770;28;20060;-53
2023/05/01 03:39:34;;;;;;;10.43;4.50;;;;;;;11.01;76.11;101421.66;5052670;28;20098;-54
2023/05/01 03:41:59;;;;;;;7.50;4.95;;;;;;;10.99;76.16;101423.56;5052684;28;20041;-55
2023/05/01 03:44:25;;;;;;;7.80;4.53;;;;;;;10.97;76.52;101420.16;5052754;28;20037;-54
2023/05/01 03:46:50;;;;;;;6.10;4.65;;;;;;;10.96;76.25;101424.63;5051979;28;20555;-55
2023/05/01 03:49:15;;;;;;;5.45;4.60;;;;;;;10.93;76.67;101422.19;5052023;28;20040;-56
2023/05/01 03:51:41;;;;;;;7.43;4.70;;;;;;;10.93;77.03;101415.06;5052590;28;20462;-57
2023/05/01 03:54:06;;;;;;;6.88;5.05;;;;;;;10.90;77.31;101415.25;5052076;28;20028;-57
2023/05/01 03:56:34;;;;;;;6.68;4.70;;;;;;;10.91;76.42;101416.13;5052382;28;20025;-57
2023/05/01 03:59:00;;;;;;;7.47;4.80;;;;;;;10.91;76.99;101416.13;5052027;28;20538;-56
2023/05/01 04:01:25;;;;;;;7.47;4.68;;;;;;;10.90;76.67;101414.41;5052721;28;20057;-56
2023/05/01 04:03:51;;;;;;;6.78;4.45;;;;;;;10.88;77.77;101414.53;5052087;28;20032;-55
2023/05/01 04:06:17;;;;;;;6.45;4.75;;;;;;;10.87;77.19;101410.16;5052074;28;20398;-56
2023/05/01 04:08:42;;;;;;;7.95;5.28;;;;;;;10.84;77.61;101407.72;5052025;28;20457;-53
2023/05/01 04:11:08;;;;;;;12.52;5.25;;;;;;;10.82;78.07;101406.13;5052310;28;20108;-57
2023/05/01 04:13:33;;;;;;;9.32;4.70;;;;;;;10.84;78.05;101410.38;5050748;28;20033;-54
2023/05/01 04:15:58;;;;;;;6.50;4.75;;;;;;;10.83;77.63;101411.31;5051960;28;20017;-53
2023/05/01 04:18:24;;;;;;;6.47;4.97;;;;;;;10.83;77.90;101408.66;5051497;28;20433;-55
2023/05/01 04:20:50;;;;;;;9.60;5.18;;;;;;;10.82;78.48;101406.97;5046483;28;20072;-56
2023/05/01 04:23:15;;;;;;;8.13;5.22;;;;;;;10.81;78.43;101409.72;5051806;28;20049;-56
2023/05/01 04:25:40;;;;;;;14.50;5.50;;;;;;;10.77;79.30;101422.38;5052036;28;20465;-55
2023/05/01 04:28:06;;;;;;;9.70;5.57;;;;;;;10.76;79.58;101423.34;5052047;28;20025;-54
2023/05/01 04:30:32;;;;;;;8.07;5.32;;;;;;;10.76;79.58;101425.13;5051991;28;20409;-56
2023/05/01 04:32:58;;;;;;;11.82;5.30;;;;;;;10.73;79.43;101419.06;5051243;28;20104;-54
2023/05/01 04:35:24;;;;;;;17.17;6.88;;;;;;;10.72;79.63;101416.53;5062941;28;20112;-56
2023/05/01 04:37:50;;;;;;;8.80;5.25;;;;;;;10.71;80.52;101417.50;5051793;28;20263;-55
2023/05/01 04:40:16;;;;;;;8.02;5.30;;;;;;;10.75;80.01;101411.00;5051836;28;20112;-56
2023/05/01 04:42:41;;;;;;;8.73;5.47;;;;;;;10.75;80.03;101400.38;5051183;28;20054;-54
2023/05/01 04:45:07;;;;;;;7.47;4.95;;;;;;;10.74;80.34;101406.63;5051947;28;20036;-55
2023/05/01 04:47:32;;;;;;;10.23;5.53;;;;;;;10.72;80.41;101405.88;5051094;28;20021;-56
2023/05/01 04:49:57;;;;;;;11.32;5.43;;;;;;;10.74;80.90;101401.31;5051460;28;20041;-55
2023/05/01 04:52:22;;;;;;;9.73;5.28;;;;;;;10.75;80.50;101405.69;5051020;28;20036;-55
2023/05/01 04:54:48;;;;;;;11.68;6.00;;;;;;;10.74;80.48;101404.84;5051848;28;20393;-55
2023/05/01 04:57:13;;;;;;;9.48;5.45;;;;;;;10.72;80.76;101406.75;5051195;28;20053;-56
2023/05/01 04:59:39;;;;;;;9.38;5.45;;;;;;;10.72;80.76;101395.25;5050550;28;20467;-56
2023/05/01 05:02:04;;;;;;;11.80;5.88;;;;;;;10.73;80.51;101404.94;5051482;28;20064;-55
2023/05/01 05:04:29;;;;;;;12.05;5.60;;;;;;;10.72;80.16;101405.88;5051752;28;20028;-57
2023/05/01 05:06:55;;;;;;;13.55;6.22;;;;;;;10.71;80.51;101404.22;5051163;28;20107;-55
2023/05/01 05:09:20;;;;;;;8.25;5.43;;;;;;;10.73;80.02;101397.81;5051121;28;20052;-53
2023/05/01 05:11:46;;;;;;;7.65;5.47;;;;;;;10.73;80.52;101397.81;5051283;28;20237;-56
2023/05/01 05:14:11;;;;;;;8.82;5.60;;;;;;;10.74;79.82;101398.66;5050636;28;20035;-54
2023/05/01 05:16:36;;;;;;;14.60;5.93;;;;;;;10.74;79.66;101410.16;5051151;28;20042;-55
2023/05/01 05:19:02;;;;;;;10.90;5.63;;;;;;;10.72;79.47;101395.25;5050738;28;20025;-53
2023/05/01 05:21:27;;;;;;;8.20;5.63;;;;;;;10.73;79.07;101389.84;5051305;28;20040;-56
2023/05/01 05:23:52;;;;;;;9.40;5.90;;;;;;;10.73;78.64;101394.31;5050953;28;20079;-55
2023/05/01 05:26:17;;;;;;;10.30;6.15;;;;;;;10.74;78.62;101398.66;5053351;28;20044;-56
2023/05/01 05:28:44;;;;;;;10.93;6.07;;;;;;;10.74;78.19;101398.66;5047475;28;20052;-56
2023/05/01 05:31:09;;;;;;;10.90;5.93;;;;;;;10.74;78.41;101398.66;5055473;28;20029;-55
2023/05/01 05:33:34;;;;;;;11.13;5.88;;;;;;;10.77;78.38;101394.97;5054152;28;20052;-52
2023/05/01 05:36:00;;;;;;;6.88;5.97;;;;;;;10.78;77.95;101397.50;5055514;28;20055;-53
2023/05/01 05:38:25;;;;;;;8.73;6.30;;;;;;;10.81;78.09;101402.63;5054612;28;20061;-56
2023/05/01 05:40:53;;;;;;;11.60;6.65;;;;;;;10.83;77.77;101397.19;5054910;28;20394;-54
2023/05/01 05:43:18;;;;;;;13.20;6.45;;;;;;;10.85;77.96;101403.25;5055452;28;20104;-53
2023/05/01 05:45:43;;;;;;;14.95;6.40;;;;;;;10.89;77.78;101402.94;5055298;28;20124;-52
2023/05/01 05:48:08;;;;;;;9.13;6.30;;;;;;;10.96;78.17;101402.50;5054712;28;20060;-55
2023/05/01 05:50:34;;;;;;;14.77;6.80;;;;;;;11.03;79.11;101401.97;5055111;28;20445;-53
2023/05/01 05:52:59;;;;;;;9.48;6.20;;;;;;;11.10;77.93;101399.75;5054967;28;20079;-51
2023/05/01 05:55:24;;;;;;;10.30;6.60;;;;;;;11.17;78.10;101397.50;5054996;28;20056;-55
2023/05/01 05:57:50;;;;;;;11.15;6.70;;;;;;;11.24;77.37;101406.75;5044520;28;20032;-52
2023/05/01 06:00:16;;;;;;;13.73;6.35;;;;;;;11.29;77.53;101407.25;5055266;28;20185;-56
2023/05/01 06:02:41;;;;;;;8.70;6.72;;;;;;;11.33;76.78;101402.59;5046258;28;20317;-52
2023/05/01 06:05:07;;;;;;;11.98;6.93;;;;;;;11.37;76.94;101399.59;5052254;28;20056;-56
2023/05/01 06:07:32;;;;;;;12.07;6.90;;;;;;;11.43;76.50;101395.66;5048896;28;20041;-55
2023/05/01 06:10:04;;;;;;;13.45;7.03;;;;;;;11.47;76.81;101387.38;5044663;28;20050;-55
2023/05/01 06:12:30;;;;;;;8.80;6.50;;;;;;;11.53;77.06;101393.19;5048901;28;20097;-52
2023/05/01 06:14:56;;;;;;;10.43;6.38;;;;;;;11.59;76.47;101395.41;5051236;28;20068;-56
2023/05/01 06:17:23;;;;;;;9.18;6.53;;;;;;;11.65;75.72;101394.97;5049312;28;20052;-53
2023/05/01 06:19:49;;;;;;;12.90;7.30;;;;;;;11.71;76.50;101398.97;5050549;28;20033;-56
2023/05/01 06:22:14;;;;;;;13.10;6.50;;;;;;;11.76;75.23;101396.84;5049796;28;20096;-55
2023/05/01 06:24:39;;;;;;;9.82;6.38;;;;;;;11.83;75.42;101392.78;5046286;28;20112;-56
2023/05/01 06:27:05;;;;;;;11.15;7.00;;;;;;;11.87;74.93;101390.75;5047330;28;20467;-56
2023/05/01 06:29:30;;;;;;;8.98;7.28;;;;;;;11.91;74.64;101385.13;5042552;28;20036;-54
2023/05/01 06:31:55;;;;;;;12.80;6.90;;;;;;;11.94;74.14;101398.19;5041872;28;20040;-54
2023/05/01 06:34:21;;;;;;;12.23;7.18;;;;;;;12.00;74.72;101388.91;5044124;28;20053;-56
2023/05/01 06:36:46;;;;;;;8.82;7.10;;;;;;;12.04;74.20;101395.72;5048727;28;20024;-54
2023/05/01 06:39:11;;;;;;;9.45;6.95;;;;;;;12.06;73.82;101393.78;5048002;28;20041;-54
2023/05/01 06:41:37;;;;;;;11.98;6.78;;;;;;;12.13;74.18;101402.16;5041116;28;20030;-56
2023/05/01 06:44:03;;;;;;;9.85;6.60;;;;;;;12.18;74.44;101384.88;5047661;28;20487;-56
2023/05/01 06:46:28;;;;;;;11.07;6.85;;;;;;;12.26;73.82;101391.41;5050178;28;20033;-55
2023/05/01 06:48:53;;;;;;;12.32;7.15;;;;;;;12.32;73.73;101381.19;5048576;28;20500;-55
2023/05/01 06:51:19;;;;;;;12.77;7.13;;;;;;;12.43;73.95;101387.50;5046309;28;20495;-56
2023/05/01 06:53:44;;;;;;;11.90;7.55;;;;;;;12.49;73.73;101385.22;5040663;28;20024;-56
2023/05/01 06:56:09;;;;;;;12.85;7.63;;;;;;;12.57;73.54;101385.50;5037832;28;20053;-52
2023/05/01 06:58:35;;;;;;;11.77;7.88;;;;;;;12.63;73.25;101384.16;5048488;28;20028;-55
2023/05/01 07:01:00;;;;;;;13.70;7.88;;;;;;;12.76;74.22;101382.25;5047171;28;20020;-55
2023/05/01 07:03:28;;;;;;;12.50;7.03;;;;;;;12.82;72.64;101383.59;5046300;28;20490;-53
2023/05/01 07:05:54;;;;;;;12.68;7.38;;;;;;;12.92;72.82;101381.06;5050450;28;20036;-52
2023/05/01 07:08:19;;;;;;;10.48;7.18;;;;;;;13.03;72.12;101380.22;5051049;28;20037;-56
2023/05/01 07:10:45;;;;;;;11.50;7.18;;;;;;;13.13;71.93;101390.03;5048090;28;20503;-55
2023/05/01 07:13:10;;;;;;;10.30;7.25;;;;;;;13.21;70.57;101377.94;5033753;28;20065;-56
2023/05/01 07:15:36;;;;;;;12.38;7.47;;;;;;;13.30;71.31;101383.38;5051162;28;20079;-56
2023/05/01 07:18:04;;;;;;;12.00;7.35;;;;;;;13.43;73.24;101374.44;5052109;28;20482;-53
2023/05/01 07:20:30;;;;;;;11.03;7.50;;;;;;;13.57;72.50;101383.97;5037062;28;20029;-55
2023/05/01 07:22:55;;;;;;;11.80;7.85;;;;;;;13.66;71.03;101378.75;5035524;28;20029;-52
2023/05/01 07:25:21;;;;;;;11.38;7.47;;;;;;;13.84;71.54;101384.41;5043018;28;20538;-54
2023/05/01 07:27:46;;;;;;;13.07;8.05;;;;;;;13.98;72.07;101375.25;5044809;28;20037;-54
2023/05/01 07:30:11;;;;;;;12.32;6.95;;;;;;;14.11;71.37;101374.25;5047684;28;20036;-52
2023/05/01 07:32:37;;;;;;;13.43;7.40;;;;;;;14.23;70.24;101376.75;5045519;28;20441;-55
2023/05/01 07:35:03;;;;;;;13.35;7.35;;;;;;;14.36;69.27;101379.25;5046366;28;20041;-55
2023/05/01 07:37:28;;;;;;;14.95;8.48;;;;;;;14.53;67.47;101383.16;5050144;28;20029;-52
2023/05/01 07:39:54;;;;;;;12.75;7.47;;;;;;;14.78;69.86;101389.13;5049989;28;20024;-52
2023/05/01 07:42:20;;;;;;;11.95;7.68;;;;;;;15.02;68.43;101388.84;5049939;28;20037;-52
2023/05/01 07:44:45;;;;;;;13.60;7.60;;;;;;;15.24;67.48;101379.78;5051366;28;20036;-53
2023/05/01 07:47:10;;;;;;;12.85;7.63;;;;;;;15.45;67.42;101386.88;5045991;28;20033;-56
2023/05/01 07:49:40;;;;;;;12.20;7.73;;;;;;;15.65;66.89;101379.75;5049431;28;20051;-52
2023/05/01 07:52:06;;;;;;;;;;;;;;;15.87;68.44;101384.03;5050843;28;20371;-54
2023/05/01 07:54:32;;;;;;;11.90;7.18;;;;;;;16.11;65.02;101382.81;5049700;28;19912;-51
2023/05/01 07:56:57;;;;;;;12.13;6.70;;;;;;;16.30;62.89;101381.94;5027603;28;20398;-52
2023/05/01 07:59:22;;;;;;;11.07;6.82;;;;;;;16.37;61.51;101381.25;5031240;28;20029;-52
2023/05/01 08:01:47;;;;;;;13.70;7.60;;;;;;;16.58;62.39;101382.91;5048360;28;20040;-52
2023/05/01 08:04:13;;;;;;;11.60;6.80;;;;;;;16.86;61.32;101377.66;5046562;28;20035;-52
2023/05/01 08:06:39;;;;;;;12.20;7.68;;;;;;;17.07;60.97;101377.44;5051178;28;20094;-52
2023/05/01 08:09:04;;;;;;;13.85;7.90;;;;;;;17.29;61.10;101378.94;5047737;28;20128;-53
2023/05/01 08:11:30;;;;;;;14.40;7.28;;;;;;;17.52;60.89;101374.84;5045154;28;20037;-52
2023/05/01 08:13:55;;;;;;;13.60;7.72;;;;;;;17.84;61.63;101373.50;5049185;28;20099;-52
2023/05/01 08:16:21;;;;;;;16.33;7.10;;;;;;;18.16;57.94;101377.53;5047420;28;20025;-52
2023/05/01 08:18:46;;;;;;;13.52;7.50;;;;;;;18.27;57.54;101365.72;5049786;28;20044;-56
2023/05/01 08:21:11;;;;;;;16.48;6.82;;;;;;;18.51;55.79;101362.34;5048852;28;20051;-52
2023/05/01 08:23:37;;;;;;;10.02;7.63;;;;;;;18.91;56.66;101366.34;5049310;28;20032;-53
2023/05/01 08:26:03;;;;;;;11.07;6.88;;;;;;;19.06;55.63;101363.06;5054866;28;20398;-52
2023/05/01 08:28:28;;;;;;;11.98;6.70;;;;;;;19.32;53.47;101366.53;5041616;28;20029;-52
2023/05/01 08:30:53;;;;;;;13.82;6.65;;;;;;;19.57;53.10;101361.25;5041070;28;20117;-52
2023/05/01 08:33:19;;;;;;;11.77;5.88;;;;;;;19.66;50.73;101362.94;5042340;28;20064;-51
2023/05/01 08:35:44;;;;;;;11.10;6.30;;;;;;;19.68;50.08;101371.69;5045654;28;20249;-52
2023/05/01 08:38:10;;;;;;;12.33;5.83;;;;;;;19.75;49.63;101364.69;5043062;28;20091;-52
2023/05/01 08:40:37;;;;;;;9.55;6.05;;;;;;;19.78;50.39;101367.06;5045813;28;20334;-52
2023/05/01 08:43:03;;;;;;;11.73;6.47;;;;;;;20.04;51.84;101367.94;5045510;28;20041;-52
2023/05/01 08:45:36;;;;;;;7.22;5.40;;;;;;;19.93;48.88;101367.25;5048310;28;20039;-52
2023/05/01 08:48:05;;;;;;;9.07;5.55;;;;;;;20.04;49.33;101374.16;5047714;28;20072;-52
2023/05/01 08:50:35;;;;;;;10.35;5.25;;;;;;;20.12;48.32;101368.78;5047347;28;20045;-52
2023/05/01 08:53:02;;;;;;;7.03;5.60;;;;;;;20.11;48.74;101369.78;5041840;28;20025;-52
2023/05/01 08:55:29;;;;;;;8.35;5.15;;;;;;;20.17;48.53;101370.09;5042834;28;20052;-52
2023/05/01 08:57:57;;;;;;;12.35;6.18;;;;;;;20.45;50.06;101366.09;5046340;28;20103;-52
2023/05/01 09:00:24;;;;;;;9.15;6.05;;;;;;;20.54;48.53;101366.06;5038025;28;20037;-52
2023/05/01 09:02:50;;;;;;;13.55;6.47;;;;;;;20.63;47.84;101368.63;5045613;28;20047;-52
2023/05/01 09:05:16;;;;;;;11.95;6.28;;;;;;;20.65;47.09;101376.53;5034703;28;20468;-52
2023/05/01 09:07:44;;;;;;;11.70;6.40;;;;;;;20.81;47.04;101381.91;5027242;28;20039;-52
2023/05/01 09:10:11;;;;;;;8.20;5.75;;;;;;;20.82;47.48;101378.19;5036356;28;20046;-52
2023/05/01 09:12:38;;;;;;;9.18;5.82;;;;;;;21.04;47.13;101376.63;5039006;28;20128;-52
2023/05/01 09:15:06;;;;;;;9.18;6.15;;;;;;;20.97;46.56;101369.41;5045399;28;20021;-54
2023/05/01 09:17:31;;;;;;;7.93;6.38;;;;;;;21.15;46.69;101372.72;5048293;28;20029;-52
2023/05/01 09:19:57;;;;;;;8.70;6.05;;;;;;;21.18;46.43;101377.78;5050447;28;20036;-53
2023/05/01 09:22:22;;;;;;;8.85;6.15;;;;;;;21.36;45.83;101379.38;5050393;28;20025;-55
2023/05/01 09:24:48;;;;;;;7.88;5.97;;;;;;;21.48;45.97;101366.34;5050737;28;20082;-56
2023/05/01 09:27:14;;;;;;;12.80;7.05;;;;;;;21.62;46.21;101374.53;5051151;28;20499;-53
2023/05/01 09:29:46;;;;;;;7.68;6.18;;;;;;;21.61;45.92;101375.56;5047219;28;20032;-52
2023/05/01 09:32:14;;;;;;;9.18;5.97;;;;;;;21.74;45.62;101376.84;5050827;28;20098;-52
2023/05/01 09:34:40;;;;;;;13.52;6.80;;;;;;;21.69;45.25;101374.69;5050396;28;20021;-53
2023/05/01 09:37:05;;;;;;;9.27;6.53;;;;;;;21.80;46.54;101376.97;5050836;28;20110;-54
2023/05/01 09:39:31;;;;;;;9.98;6.15;;;;;;;22.13;45.59;101371.34;5050230;28;20299;-53
2023/05/01 09:41:56;;;;;;;9.25;6.32;;;;;;;22.37;45.40;101372.19;5052107;28;20028;-52
2023/05/01 09:44:21;;;;;;;9.07;5.70;;;;;;;22.41;42.97;101364.53;5046945;28;20043;-52
2023/05/01 09:46:48;;;;;;;10.15;6.15;;;;;;;22.72;43.27;101364.41;5050340;28;20772;-52
2023/05/01 09:49:14;;;;;;;12.30;6.35;;;;;;;22.86;42.81;101365.44;5047976;28;20094;-52
2023/05/01 09:51:40;;;;;;;10.68;6.10;;;;;;;22.99;41.73;101367.50;5044993;28;20215;-53
2023/05/01 09:54:17;;;;;;;9.38;6.72;;;;;;;23.14;43.80;101370.25;5049340;28;20100;-56
2023/05/01 09:56:48;;;;;;;8.80;6.05;;;;;;;23.03;43.08;101366.97;5050970;28;20039;-55
2023/05/01 09:59:16;;;;;;;8.23;5.90;;;;;;;22.92;42.03;101362.00;5050908;28;20029;-53
2023/05/01 10:01:44;;;;;;;10.60;6.20;;;;;;;22.94;43.57;101375.34;5045459;28;20463;-55
2023/05/01 10:04:10;;;;;;;8.82;5.95;;;;;;;22.99;42.42;101379.19;5048056;28;20124;-52
2023/05/01 10:06:36;;;;;;;7.63;5.43;;;;;;;22.86;41.17;101371.69;5041072;28;20479;-56
2023/05/01 10:09:03;;;;;;;6.35;5.25;;;;;;;23.04;41.14;101373.22;5045454;28;20123;-55
2023/05/01 10:11:28;;;;;;;8.93;5.95;;;;;;;22.93;42.30;101369.06;5051003;28;20371;-54
2023/05/01 10:14:09;;;;;;;6.55;5.13;;;;;;;23.16;42.92;101371.72;5045015;28;20021;-56
2023/05/01 10:16:36;;;;;;;11.20;5.68;;;;;;;22.98;40.83;101379.38;5053878;28;20033;-53
2023/05/01 10:19:03;;;;;;;7.68;5.78;;;;;;;22.85;41.10;101378.16;5054446;28;20013;-52
2023/05/01 10:21:29;;;;;;;10.68;5.45;;;;;;;22.62;41.42;101380.94;5050567;28;20043;-52
2023/05/01 10:23:54;;;;;;;9.88;5.82;;;;;;;22.80;42.00;101377.88;5053548;28;20375;-52
2023/05/01 10:26:20;;;;;;;10.88;5.53;;;;;;;22.72;40.92;101376.06;5053747;28;20025;-52
2023/05/01 10:28:47;;;;;;;10.00;6.25;;;;;;;22.75;43.24;101388.41;5053385;28;20064;-53
2023/05/01 10:31:13;;;;;;;8.68;6.40;;;;;;;22.65;41.57;101375.16;5053536;28;20025;-52
2023/05/01 10:33:39;;;;;;;7.93;5.88;;;;;;;22.80;42.76;101379.72;5054202;28;20421;-52
2023/05/01 10:36:10;;;;;;;8.82;6.28;;;;;;;22.79;43.26;101383.47;5053530;28;20025;-52
2023/05/01 10:38:37;;;;;;;7.72;5.50;;;;;;;22.93;43.62;101385.34;5053772;28;20136;-52
2023/05/01 10:41:02;;;;;;;11.65;5.80;;;;;;;22.86;41.97;101377.09;5051239;28;20107;-53
2023/05/01 10:43:31;;;;;;;7.78;5.60;;;;;;;22.75;42.58;101385.72;5047464;28;21098;-52
2023/05/01 10:46:08;;;;;;;12.00;6.20;;;;;;;22.71;42.93;101390.63;5045018;28;20037;-52
2023/05/01 10:48:36;;;;;;;13.32;5.63;;;;;;;22.57;43.60;101388.75;5046153;28;20428;-54
2023/05/01 10:51:13;;;;;;;12.00;5.90;;;;;;;22.57;42.69;101396.06;5046374;28;20075;-56
2023/05/01 10:53:42;;;;;;;9.57;5.85;;;;;;;22.51;42.81;101400.31;5049468;28;20028;-52
2023/05/01 10:56:20;;;;;;;11.52;5.93;;;;;;;22.73;43.50;101394.03;5051323;28;20466;-53
2023/05/01 10:58:50;;;;;;;9.20;5.70;;;;;;;22.62;41.43;101396.34;5049826;28;20041;-52
2023/05/01 11:01:40;;;;;;;9.02;6.13;;;;;;;22.83;42.04;101391.06;5050542;28;20461;-52
2023/05/01 11:04:26;;;;;;;8.55;6.20;;;;;;;22.86;42.29;101389.81;5047157;28;20462;-52
2023/05/01 11:07:00;;;;;;;8.43;5.95;;;;;;;22.83;42.54;101385.63;5043459;28;20024;-52
2023/05/01 11:09:38;;;;;;;10.13;6.30;;;;;;;22.98;42.64;101388.34;5039937;28;20057;-52
2023/05/01 11:12:03;;;;;;;10.68;6.72;;;;;;;22.85;41.87;101390.88;5045650;28;20360;-51
2023/05/01 11:15:04;;;;;;;9.00;6.13;;;;;;;23.09;43.13;101390.59;5051509;28;20032;-51
2023/05/01 11:17:38;;;;;;;10.10;6.75;;;;;;;23.16;41.75;101393.41;5047970;28;20816;-51
2023/05/01 11:20:04;;;;;;;8.73;6.22;;;;;;;22.94;40.89;101389.75;5043724;28;20057;-51
2023/05/01 11:22:30;;;;;;;12.18;6.10;;;;;;;22.87;40.96;101386.09;5044971;28;20091;-51